Terminal Aerodrome Forecast
Issued by NWS

Home | Current Version | Previous Version | Graphics & Text | Print | Product List | Glossary Off
Versions: 1 2 3 4 5 6 7 8 9 10 11 12 13 14 15 16 17 18 19 20 21 22 23 24 25 26 27 28 29 30 31 32 33 34 35

000
FTUS43 KDDC 311722
TAFGCK
TAF
KGCK 311722Z 3118/0118 19016G22KT P6SM OVC007
     FM312100 17010KT P6SM OVC020
     FM010300 33013KT 3SM BR OVC005
      TEMPO 0103/0107 1SM -RASN BR OVC003
     FM011200 34025KT P6SM BKN015=

USA.gov is the U.S. government's official web portal to all federal, state and local government web resources and services.